Great Barrington, Massachusetts
Current Conditions -  °F | °C
As of 5:54 AM on Monday 20 Oct 2014 (Local Time) from KPSF Reporting Station
Clear Clear  
Wind Chill: 28°   Ceiling: Unl
Heat Index: 33°   Visibility: 10mi
Dew Point: 28°   Wind: 6mph
Humidity: 82%   Direction: 260°W
Pressure: 30"   Gusts: NA
Location:  42.2°N, 73.36°W
Report Text: KPSF 200954Z AUTO 26005KT 10SM CLR 01/M02 A3000 RMK AO2 SLP164 T00061022
Loading
Personal Weather Stations






























Interactive Weather Map
Tropical Storm Tracking
New forecast layout! Learn more

10-Day Weather Forecast

Advertisements
Track Severe Weather on mobile